sensor_id;sensor_type;location;lat;lon;timestamp;pressure;altitude;pressure_sealevel;temperature;humidity
54038;BME280;39954;48.844;9.726;2024-01-25T00:00:11;97164.13;;;6.33;100.00
54038;BME280;39954;48.844;9.726;2024-01-25T00:01:16;97157.31;;;6.29;100.00
54038;BME280;39954;48.844;9.726;2024-01-25T00:02:20;97152.25;;;6.26;100.00
54038;BME280;39954;48.844;9.726;2024-01-25T00:03:22;97142.66;;;6.31;100.00
54038;BME280;39954;48.844;9.726;2024-01-25T00:04:27;97146.00;;;6.36;100.00
54038;BME280;39954;48.844;9.726;2024-01-25T00:05:31;97147.53;;;6.43;100.00
54038;BME280;39954;48.844;9.726;2024-01-25T00:06:34;97139.09;;;6.35;100.00
54038;BME280;39954;48.844;9.726;2024-01-25T00:07:46;97143.34;;;6.39;100.00
54038;BME280;39954;48.844;9.726;2024-01-25T00:08:48;97141.66;;;6.37;100.00
54038;BME280;39954;48.844;9.726;2024-01-25T00:09:53;97143.25;;;6.42;100.00
54038;BME280;39954;48.844;9.726;2024-01-25T00:10:55;97132.94;;;6.41;100.00
54038;BME280;39954;48.844;9.726;2024-01-25T00:12:03;97133.09;;;6.36;100.00
54038;BME280;39954;48.844;9.726;2024-01-25T00:13:05;97132.34;;;6.31;100.00
54038;BME280;39954;48.844;9.726;2024-01-25T00:14:10;97131.41;;;6.34;100.00
54038;BME280;39954;48.844;9.726;2024-01-25T00:15:13;97120.28;;;6.30;100.00
54038;BME280;39954;48.844;9.726;2024-01-25T00:16:18;97130.44;;;6.38;100.00
54038;BME280;39954;48.844;9.726;2024-01-25T00:17:20;97123.63;;;6.35;100.00
54038;BME280;39954;48.844;9.726;2024-01-25T00:18:26;97125.34;;;6.36;100.00
54038;BME280;39954;48.844;9.726;2024-01-25T00:19:30;97107.22;;;6.38;100.00
54038;BME280;39954;48.844;9.726;2024-01-25T00:20:35;97127.09;;;6.34;100.00
54038;BME280;39954;48.844;9.726;2024-01-25T00:21:41;97112.44;;;6.36;100.00
54038;BME280;39954;48.844;9.726;2024-01-25T00:22:47;97115.13;;;6.30;100.00
54038;BME280;39954;48.844;9.726;2024-01-25T00:23:49;97116.91;;;6.28;100.00
54038;BME280;39954;48.844;9.726;2024-01-25T00:24:54;97117.84;;;6.24;100.00
54038;BME280;39954;48.844;9.726;2024-01-25T00:25:56;97117.94;;;6.21;100.00
54038;BME280;39954;48.844;9.726;2024-01-25T00:27:04;97124.00;;;6.20;100.00
54038;BME280;39954;48.844;9.726;2024-01-25T00:28:07;97124.81;;;6.22;100.00
54038;BME280;39954;48.844;9.726;2024-01-25T00:29:11;97119.59;;;6.23;100.00
54038;BME280;39954;48.844;9.726;2024-01-25T00:30:14;97126.41;;;6.27;100.00
54038;BME280;39954;48.844;9.726;2024-01-25T00:31:16;97120.28;;;6.30;100.00
54038;BME280;39954;48.844;9.726;2024-01-25T00:32:21;97116.91;;;6.28;100.00
54038;BME280;39954;48.844;9.726;2024-01-25T00:33:23;97112.53;;;6.30;100.00
54038;BME280;39954;48.844;9.726;2024-01-25T00:34:29;97110.88;;;6.29;100.00
54038;BME280;39954;48.844;9.726;2024-01-25T00:35:32;97118.53;;;6.32;100.00
54038;BME280;39954;48.844;9.726;2024-01-25T00:36:38;97110.78;;;6.32;100.00
54038;BME280;39954;48.844;9.726;2024-01-25T00:37:41;97117.75;;;6.28;100.00
54038;BME280;39954;48.844;9.726;2024-01-25T00:38:43;97118.44;;;6.35;100.00
54038;BME280;39954;48.844;9.726;2024-01-25T00:39:49;97121.19;;;6.29;100.00
54038;BME280;39954;48.844;9.726;2024-01-25T00:40:53;97124.75;;;6.25;100.00
54038;BME280;39954;48.844;9.726;2024-01-25T00:42:04;97113.44;;;6.29;100.00
54038;BME280;39954;48.844;9.726;2024-01-25T00:43:08;97116.00;;;6.31;100.00
54038;BME280;39954;48.844;9.726;2024-01-25T00:44:13;97121.09;;;6.32;100.00
54038;BME280;39954;48.844;9.726;2024-01-25T00:45:16;97112.59;;;6.28;100.00
54038;BME280;39954;48.844;9.726;2024-01-25T00:46:22;97109.97;;;6.30;100.00
54038;BME280;39954;48.844;9.726;2024-01-25T00:47:25;97116.91;;;6.28;100.00
54038;BME280;39954;48.844;9.726;2024-01-25T00:48:30;97118.69;;;6.26;100.00
54038;BME280;39954;48.844;9.726;2024-01-25T00:49:33;97117.78;;;6.27;100.00
54038;BME280;39954;48.844;9.726;2024-01-25T00:50:39;97110.91;;;6.27;100.00
54038;BME280;39954;48.844;9.726;2024-01-25T00:51:46;97120.38;;;6.27;100.00
54038;BME280;39954;48.844;9.726;2024-01-25T00:52:52;97113.28;;;6.35;100.00
54038;BME280;39954;48.844;9.726;2024-01-25T00:53:55;97107.19;;;6.39;100.00
54038;BME280;39954;48.844;9.726;2024-01-25T00:54:58;97118.38;;;6.38;100.00
54038;BME280;39954;48.844;9.726;2024-01-25T00:56:04;97107.22;;;6.38;100.00
54038;BME280;39954;48.844;9.726;2024-01-25T00:57:11;97108.94;;;6.39;100.00
54038;BME280;39954;48.844;9.726;2024-01-25T00:58:16;97103.69;;;6.42;100.00
54038;BME280;39954;48.844;9.726;2024-01-25T00:59:19;97107.09;;;6.42;100.00
54038;BME280;39954;48.844;9.726;2024-01-25T01:00:25;97108.88;;;6.40;100.00
54038;BME280;39954;48.844;9.726;2024-01-25T01:01:28;97114.22;;;6.33;100.00
54038;BME280;39954;48.844;9.726;2024-01-25T01:02:36;97103.75;;;6.39;100.00
54038;BME280;39954;48.844;9.726;2024-01-25T01:03:42;97098.59;;;6.39;100.00
54038;BME280;39954;48.844;9.726;2024-01-25T01:04:48;97105.69;;;6.29;100.00
54038;BME280;39954;48.844;9.726;2024-01-25T01:05:52;97102.28;;;6.27;100.00
54038;BME280;39954;48.844;9.726;2024-01-25T01:07:04;97091.94;;;6.28;100.00
54038;BME280;39954;48.844;9.726;2024-01-25T01:08:08;97093.63;;;6.30;100.00
54038;BME280;39954;48.844;9.726;2024-01-25T01:09:17;97084.09;;;6.33;100.00
54038;BME280;39954;48.844;9.726;2024-01-25T01:10:20;97085.88;;;6.31;100.00
54038;BME280;39954;48.844;9.726;2024-01-25T01:11:27;97086.63;;;6.35;100.00
54038;BME280;39954;48.844;9.726;2024-01-25T01:12:33;97085.03;;;6.29;100.00
54038;BME280;39954;48.844;9.726;2024-01-25T01:13:39;97089.38;;;6.27;100.00
54038;BME280;39954;48.844;9.726;2024-01-25T01:14:42;97101.28;;;6.34;100.00
54038;BME280;39954;48.844;9.726;2024-01-25T01:15:48;97108.19;;;6.32;100.00
54038;BME280;39954;48.844;9.726;2024-01-25T01:16:51;97086.72;;;6.30;100.00
54038;BME280;39954;48.844;9.726;2024-01-25T01:17:57;97102.34;;;6.25;100.00
54038;BME280;39954;48.844;9.726;2024-01-25T01:19:01;97089.38;;;6.27;100.00
54038;BME280;39954;48.844;9.726;2024-01-25T01:20:10;97096.28;;;6.28;100.00
54038;BME280;39954;48.844;9.726;2024-01-25T01:21:14;97092.88;;;6.26;100.00
54038;BME280;39954;48.844;9.726;2024-01-25T01:22:19;97087.69;;;6.26;100.00
54038;BME280;39954;48.844;9.726;2024-01-25T01:23:23;97098.03;;;6.26;100.00
54038;BME280;39954;48.844;9.726;2024-01-25T01:24:28;97102.44;;;6.22;100.00
54038;BME280;39954;48.844;9.726;2024-01-25T01:25:31;97098.09;;;6.23;100.00
54038;BME280;39954;48.844;9.726;2024-01-25T01:26:37;97113.44;;;6.29;100.00
54038;BME280;39954;48.844;9.726;2024-01-25T01:27:42;97105.75;;;6.27;100.00
54038;BME280;39954;48.844;9.726;2024-01-25T01:28:48;97109.19;;;6.28;100.00
54038;BME280;39954;48.844;9.726;2024-01-25T01:29:54;97102.13;;;6.35;100.00
54038;BME280;39954;48.844;9.726;2024-01-25T01:30:59;97098.72;;;6.33;100.00
54038;BME280;39954;48.844;9.726;2024-01-25T01:32:05;97091.03;;;6.31;100.00
54038;BME280;39954;48.844;9.726;2024-01-25T01:33:11;97091.06;;;6.30;100.00
54038;BME280;39954;48.844;9.726;2024-01-25T01:34:17;97098.72;;;6.33;100.00
54038;BME280;39954;48.844;9.726;2024-01-25T01:35:24;97099.44;;;6.39;100.00
54038;BME280;39954;48.844;9.726;2024-01-25T01:36:27;97114.13;;;6.36;100.00
54038;BME280;39954;48.844;9.726;2024-01-25T01:37:33;97090.09;;;6.34;100.00
54038;BME280;39954;48.844;9.726;2024-01-25T01:38:36;97090.94;;;6.34;100.00
54038;BME280;39954;48.844;9.726;2024-01-25T01:39:41;97105.53;;;6.37;100.00
54038;BME280;39954;48.844;9.726;2024-01-25T01:40:44;97102.78;;;6.43;100.00
54038;BME280;39954;48.844;9.726;2024-01-25T01:41:51;97101.28;;;6.34;100.00
54038;BME280;39954;48.844;9.726;2024-01-25T01:43:27;97121.00;;;6.37;100.00
54038;BME280;39954;48.844;9.726;2024-01-25T01:44:32;97120.94;;;6.40;100.00
54038;BME280;39954;48.844;9.726;2024-01-25T01:45:38;97111.53;;;6.37;100.00
54038;BME280;39954;48.844;9.726;2024-01-25T01:46:43;97104.69;;;6.36;100.00
54038;BME280;39954;48.844;9.726;2024-01-25T01:47:47;97129.63;;;6.36;100.00
54038;BME280;39954;48.844;9.726;2024-01-25T01:48:53;97132.03;;;6.43;100.00
54038;BME280;39954;48.844;9.726;2024-01-25T01:49:57;97125.19;;;6.42;100.00
54038;BME280;39954;48.844;9.726;2024-01-25T01:51:04;97125.19;;;6.42;100.00
54038;BME280;39954;48.844;9.726;2024-01-25T01:52:08;97127.69;;;6.45;100.00
54038;BME280;39954;48.844;9.726;2024-01-25T01:53:13;97138.00;;;6.47;100.00
54038;BME280;39954;48.844;9.726;2024-01-25T01:54:16;97125.84;;;6.50;100.00
54038;BME280;39954;48.844;9.726;2024-01-25T01:55:22;97128.50;;;6.47;100.00
54038;BME280;39954;48.844;9.726;2024-01-25T01:56:27;97134.47;;;6.49;100.00
54038;BME280;39954;48.844;9.726;2024-01-25T01:57:37;97138.75;;;6.50;100.00
54038;BME280;39954;48.844;9.726;2024-01-25T01:58:43;97127.59;;;6.50;100.00
54038;BME280;39954;48.844;9.726;2024-01-25T01:59:48;97119.78;;;6.53;100.00
54038;BME280;39954;48.844;9.726;2024-01-25T02:00:55;97131.75;;;6.56;100.00
54038;BME280;39954;48.844;9.726;2024-01-25T02:01:59;97130.13;;;6.52;100.00
54038;BME280;39954;48.844;9.726;2024-01-25T02:03:03;97138.75;;;6.50;100.00
54038;BME280;39954;48.844;9.726;2024-01-25T02:04:09;97138.75;;;6.50;100.00
54038;BME280;39954;48.844;9.726;2024-01-25T02:05:12;97138.84;;;6.47;100.00
54038;BME280;39954;48.844;9.726;2024-01-25T02:06:19;97128.44;;;6.50;100.00
54038;BME280;39954;48.844;9.726;2024-01-25T02:07:25;97140.50;;;6.50;100.00
54038;BME280;39954;48.844;9.726;2024-01-25T02:08:31;97130.97;;;6.52;100.00
54038;BME280;39954;48.844;9.726;2024-01-25T02:09:34;97135.34;;;6.50;100.00
54038;BME280;39954;48.844;9.726;2024-01-25T02:10:40;97137.00;;;6.53;100.00
54038;BME280;39954;48.844;9.726;2024-01-25T02:11:43;97131.94;;;6.48;100.00
54038;BME280;39954;48.844;9.726;2024-01-25T02:12:49;97130.28;;;6.45;100.00
54038;BME280;39954;48.844;9.726;2024-01-25T02:13:55;97128.59;;;6.44;100.00
54038;BME280;39954;48.844;9.726;2024-01-25T02:15:00;97138.84;;;6.47;100.00
54038;BME280;39954;48.844;9.726;2024-01-25T02:16:04;97117.34;;;6.47;100.00
54038;BME280;39954;48.844;9.726;2024-01-25T02:17:08;97118.25;;;6.44;100.00
54038;BME280;39954;48.844;9.726;2024-01-25T02:18:15;97128.59;;;6.44;100.00
54038;BME280;39954;48.844;9.726;2024-01-25T02:19:18;97128.44;;;6.50;100.00
54038;BME280;39954;48.844;9.726;2024-01-25T02:20:25;97118.25;;;6.44;100.00
54038;BME280;39954;48.844;9.726;2024-01-25T02:21:28;97119.19;;;6.40;100.00
54038;BME280;39954;48.844;9.726;2024-01-25T02:22:37;97118.59;;;6.31;100.00
54038;BME280;39954;48.844;9.726;2024-01-25T02:23:39;97108.94;;;6.39;100.00
54038;BME280;39954;48.844;9.726;2024-01-25T02:24:45;97113.16;;;6.41;100.00
54038;BME280;39954;48.844;9.726;2024-01-25T02:25:48;97122.69;;;6.38;100.00
54038;BME280;39954;48.844;9.726;2024-01-25T02:26:54;97109.84;;;6.36;100.00
54038;BME280;39954;48.844;9.726;2024-01-25T02:27:57;97106.38;;;6.37;100.00
54038;BME280;39954;48.844;9.726;2024-01-25T02:29:03;97111.69;;;6.31;100.00
54038;BME280;39954;48.844;9.726;2024-01-25T02:30:08;97124.47;;;6.36;100.00
54038;BME280;39954;48.844;9.726;2024-01-25T02:31:16;97115.09;;;6.33;100.00
54038;BME280;39954;48.844;9.726;2024-01-25T02:32:20;97122.75;;;6.36;100.00
54038;BME280;39954;48.844;9.726;2024-01-25T02:33:26;97123.63;;;6.35;100.00
54038;BME280;39954;48.844;9.726;2024-01-25T02:34:30;97126.28;;;6.32;100.00
54038;BME280;39954;48.844;9.726;2024-01-25T02:35:37;97133.88;;;6.38;100.00
54038;BME280;39954;48.844;9.726;2024-01-25T02:36:40;97119.25;;;6.39;100.00
54038;BME280;39954;48.844;9.726;2024-01-25T02:37:50;97112.38;;;6.38;100.00
54038;BME280;39954;48.844;9.726;2024-01-25T02:38:53;97115.84;;;6.37;100.00
54038;BME280;39954;48.844;9.726;2024-01-25T02:39:59;97124.41;;;6.39;100.00
54038;BME280;39954;48.844;9.726;2024-01-25T02:41:02;97122.69;;;6.39;100.00
54038;BME280;39954;48.844;9.726;2024-01-25T02:42:08;97118.38;;;6.38;100.00
54038;BME280;39954;48.844;9.726;2024-01-25T02:43:11;97118.38;;;6.38;100.00
54038;BME280;39954;48.844;9.726;2024-01-25T02:44:17;97115.88;;;6.35;100.00
54038;BME280;39954;48.844;9.726;2024-01-25T02:45:22;97123.69;;;6.32;100.00
54038;BME280;39954;48.844;9.726;2024-01-25T02:46:28;97118.44;;;6.35;100.00
54038;BME280;39954;48.844;9.726;2024-01-25T02:47:31;97121.03;;;6.35;100.00
54038;BME280;39954;48.844;9.726;2024-01-25T02:48:37;97124.41;;;6.39;100.00
54038;BME280;39954;48.844;9.726;2024-01-25T02:49:40;97116.88;;;6.30;100.00
54038;BME280;39954;48.844;9.726;2024-01-25T02:50:46;97133.09;;;6.35;100.00
54038;BME280;39954;48.844;9.726;2024-01-25T02:51:49;97129.59;;;6.37;100.00
54038;BME280;39954;48.844;9.726;2024-01-25T02:52:55;97128.78;;;6.35;100.00
54038;BME280;39954;48.844;9.726;2024-01-25T02:54:02;97117.66;;;6.33;100.00
54038;BME280;39954;48.844;9.726;2024-01-25T02:55:06;97120.28;;;6.30;100.00
54038;BME280;39954;48.844;9.726;2024-01-25T02:56:11;97119.53;;;6.26;100.00
54038;BME280;39954;48.844;9.726;2024-01-25T02:57:15;97124.59;;;6.31;100.00
54038;BME280;39954;48.844;9.726;2024-01-25T02:58:20;97128.03;;;6.30;100.00
54038;BME280;39954;48.844;9.726;2024-01-25T02:59:24;97126.44;;;6.26;100.00
54038;BME280;39954;48.844;9.726;2024-01-25T03:00:30;97129.91;;;6.25;100.00
54038;BME280;39954;48.844;9.726;2024-01-25T03:01:38;97125.66;;;6.22;100.00
54038;BME280;39954;48.844;9.726;2024-01-25T03:02:46;97120.34;;;6.28;100.00
54038;BME280;39954;48.844;9.726;2024-01-25T03:03:49;97139.25;;;6.29;100.00
54038;BME280;39954;48.844;9.726;2024-01-25T03:04:55;97134.03;;;6.32;100.00
54038;BME280;39954;48.844;9.726;2024-01-25T03:06:06;97132.34;;;6.30;100.00
54038;BME280;39954;48.844;9.726;2024-01-25T03:07:14;97124.59;;;6.31;100.00
54038;BME280;39954;48.844;9.726;2024-01-25T03:08:20;97132.25;;;6.34;100.00
54038;BME280;39954;48.844;9.726;2024-01-25T03:09:26;97128.91;;;6.31;100.00
54038;BME280;39954;48.844;9.726;2024-01-25T03:10:30;97127.91;;;6.36;100.00
54038;BME280;39954;48.844;9.726;2024-01-25T03:11:35;97129.75;;;6.31;100.00
54038;BME280;39954;48.844;9.726;2024-01-25T03:12:39;97128.84;;;6.32;100.00
54038;BME280;39954;48.844;9.726;2024-01-25T03:13:44;97125.44;;;6.30;100.00
54038;BME280;39954;48.844;9.726;2024-01-25T03:14:48;97131.44;;;6.32;100.00
54038;BME280;39954;48.844;9.726;2024-01-25T03:15:54;97131.50;;;6.29;100.00
54038;BME280;39954;48.844;9.726;2024-01-25T03:16:57;97125.44;;;6.30;100.00
54038;BME280;39954;48.844;9.726;2024-01-25T03:18:03;97107.47;;;6.27;100.00
54038;BME280;39954;48.844;9.726;2024-01-25T03:19:07;97121.34;;;6.21;100.00
54038;BME280;39954;48.844;9.726;2024-01-25T03:20:13;97118.00;;;6.18;100.00
54038;BME280;39954;48.844;9.726;2024-01-25T03:21:16;97117.25;;;6.14;100.00
54038;BME280;39954;48.844;9.726;2024-01-25T03:22:22;97132.75;;;6.13;100.00
54038;BME280;39954;48.844;9.726;2024-01-25T03:23:27;97134.31;;;6.20;100.00
54038;BME280;39954;48.844;9.726;2024-01-25T03:24:40;97143.81;;;6.18;100.00
54038;BME280;39954;48.844;9.726;2024-01-25T03:25:43;97143.78;;;6.19;100.00
54038;BME280;39954;48.844;9.726;2024-01-25T03:26:49;97134.31;;;6.20;100.00
54038;BME280;39954;48.844;9.726;2024-01-25T03:27:53;97117.94;;;6.21;100.00
54038;BME280;39954;48.844;9.726;2024-01-25T03:28:59;97136.81;;;6.23;100.00
54038;BME280;39954;48.844;9.726;2024-01-25T03:30:03;97138.44;;;6.27;100.00
54038;BME280;39954;48.844;9.726;2024-01-25T03:31:09;97139.41;;;6.23;100.00
54038;BME280;39954;48.844;9.726;2024-01-25T03:32:13;97141.16;;;6.21;100.00
54038;BME280;39954;48.844;9.726;2024-01-25T03:33:19;97156.56;;;6.24;100.00
54038;BME280;39954;48.844;9.726;2024-01-25T03:34:24;97155.72;;;6.23;100.00
54038;BME280;39954;48.844;9.726;2024-01-25T03:35:27;97156.56;;;6.25;100.00
54038;BME280;39954;48.844;9.726;2024-01-25T03:36:34;97155.72;;;6.25;100.00
54038;BME280;39954;48.844;9.726;2024-01-25T03:37:38;97156.63;;;6.22;100.00
54038;BME280;39954;48.844;9.726;2024-01-25T03:38:46;97154.97;;;6.20;100.00
54038;BME280;39954;48.844;9.726;2024-01-25T03:39:50;97147.16;;;6.21;100.00
54038;BME280;39954;48.844;9.726;2024-01-25T03:40:55;97153.13;;;6.25;100.00
54038;BME280;39954;48.844;9.726;2024-01-25T03:42:00;97162.72;;;6.20;100.00
54038;BME280;39954;48.844;9.726;2024-01-25T03:43:16;97154.97;;;6.20;100.00
54038;BME280;39954;48.844;9.726;2024-01-25T03:44:25;97161.78;;;6.22;100.00
54038;BME280;39954;48.844;9.726;2024-01-25T03:45:31;97164.41;;;6.21;100.00
54038;BME280;39954;48.844;9.726;2024-01-25T03:46:35;97161.03;;;6.17;100.00
54038;BME280;39954;48.844;9.726;2024-01-25T03:47:41;97173.06;;;6.18;100.00
54038;BME280;39954;48.844;9.726;2024-01-25T03:48:46;97165.44;;;6.14;100.00
54038;BME280;39954;48.844;9.726;2024-01-25T03:49:51;97172.22;;;6.18;100.00
54038;BME280;39954;48.844;9.726;2024-01-25T03:50:55;97154.22;;;6.15;100.00
54038;BME280;39954;48.844;9.726;2024-01-25T03:52:04;97172.22;;;6.18;100.00
54038;BME280;39954;48.844;9.726;2024-01-25T03:53:09;97170.44;;;6.20;100.00
54038;BME280;39954;48.844;9.726;2024-01-25T03:54:21;97177.38;;;6.18;100.00
54038;BME280;39954;48.844;9.726;2024-01-25T03:55:24;97170.53;;;6.17;100.00
54038;BME280;39954;48.844;9.726;2024-01-25T03:56:30;97192.72;;;6.24;100.00
54038;BME280;39954;48.844;9.726;2024-01-25T03:57:33;97183.22;;;6.24;100.00
54038;BME280;39954;48.844;9.726;2024-01-25T03:58:39;97184.22;;;6.19;100.00
54038;BME280;39954;48.844;9.726;2024-01-25T03:59:42;97174.78;;;6.18;100.00
54038;BME280;39954;48.844;9.726;2024-01-25T04:00:48;97184.22;;;6.19;100.00
54038;BME280;39954;48.844;9.726;2024-01-25T04:01:51;97178.16;;;6.21;100.00
54038;BME280;39954;48.844;9.726;2024-01-25T04:02:58;97182.59;;;6.16;100.00
54038;BME280;39954;48.844;9.726;2024-01-25T04:04:04;97176.66;;;6.11;100.00
54038;BME280;39954;48.844;9.726;2024-01-25T04:05:07;97174.03;;;6.13;100.00
54038;BME280;39954;48.844;9.726;2024-01-25T04:06:13;97177.50;;;6.12;100.00
54038;BME280;39954;48.844;9.726;2024-01-25T04:07:16;97188.09;;;5.99;100.00
54038;BME280;39954;48.844;9.726;2024-01-25T04:08:22;97185.41;;;6.04;100.00
54038;BME280;39954;48.844;9.726;2024-01-25T04:09:28;97182.88;;;6.02;100.00
54038;BME280;39954;48.844;9.726;2024-01-25T04:10:33;97193.06;;;6.09;100.00
54038;BME280;39954;48.844;9.726;2024-01-25T04:11:37;97188.09;;;5.99;100.00
54038;BME280;39954;48.844;9.726;2024-01-25T04:12:42;97187.22;;;6.00;100.00
54038;BME280;39954;48.844;9.726;2024-01-25T04:13:45;97188.03;;;6.02;100.00
54038;BME280;39954;48.844;9.726;2024-01-25T04:14:51;97188.16;;;5.96;100.00
54038;BME280;39954;48.844;9.726;2024-01-25T04:15:54;97180.38;;;5.98;100.00
54038;BME280;39954;48.844;9.726;2024-01-25T04:17:01;97182.13;;;5.96;100.00
54038;BME280;39954;48.844;9.726;2024-01-25T04:18:05;97182.06;;;5.99;100.00
54038;BME280;39954;48.844;9.726;2024-01-25T04:19:11;97189.97;;;5.91;100.00
54038;BME280;39954;48.844;9.726;2024-01-25T04:20:15;97185.63;;;5.93;100.00
54038;BME280;39954;48.844;9.726;2024-01-25T04:21:21;97183.97;;;5.89;100.00
54038;BME280;39954;48.844;9.726;2024-01-25T04:22:23;97198.69;;;5.86;100.00
54038;BME280;39954;48.844;9.726;2024-01-25T04:23:29;97202.06;;;5.88;100.00
54038;BME280;39954;48.844;9.726;2024-01-25T04:24:35;97189.97;;;5.91;100.00
54038;BME280;39954;48.844;9.726;2024-01-25T04:25:41;97189.09;;;5.94;100.00
54038;BME280;39954;48.844;9.726;2024-01-25T04:26:44;97192.56;;;5.90;100.00
54038;BME280;39954;48.844;9.726;2024-01-25T04:27:50;97190.81;;;5.92;100.00
54038;BME280;39954;48.844;9.726;2024-01-25T04:28:53;97200.28;;;5.91;100.00
54038;BME280;39954;48.844;9.726;2024-01-25T04:29:58;97190.78;;;5.93;100.00
54038;BME280;39954;48.844;9.726;2024-01-25T04:31:02;97195.97;;;5.92;100.00
54038;BME280;39954;48.844;9.726;2024-01-25T04:32:08;97184.00;;;5.88;100.00
54038;BME280;39954;48.844;9.726;2024-01-25T04:33:11;97184.88;;;5.88;100.00
54038;BME280;39954;48.844;9.726;2024-01-25T04:34:17;97190.06;;;5.85;100.00
54038;BME280;39954;48.844;9.726;2024-01-25T04:35:20;97190.94;;;5.86;100.00
54038;BME280;39954;48.844;9.726;2024-01-25T04:36:25;97187.47;;;5.87;100.00
54038;BME280;39954;48.844;9.726;2024-01-25T04:37:31;97197.88;;;5.82;100.00
54038;BME280;39954;48.844;9.726;2024-01-25T04:38:34;97196.09;;;5.86;100.00
54038;BME280;39954;48.844;9.726;2024-01-25T04:39:43;97196.91;;;5.88;100.00
54038;BME280;39954;48.844;9.726;2024-01-25T04:40:46;97209.09;;;5.81;100.00
54038;BME280;39954;48.844;9.726;2024-01-25T04:41:52;97211.50;;;5.89;100.00
54038;BME280;39954;48.844;9.726;2024-01-25T04:42:56;97207.25;;;5.86;100.00
54038;BME280;39954;48.844;9.726;2024-01-25T04:44:02;97206.38;;;5.87;100.00
54038;BME280;39954;48.844;9.726;2024-01-25T04:45:06;97200.38;;;5.85;100.00
54038;BME280;39954;48.844;9.726;2024-01-25T04:46:13;97201.25;;;5.86;100.00
54038;BME280;39954;48.844;9.726;2024-01-25T04:47:16;97203.06;;;5.80;100.00
54038;BME280;39954;48.844;9.726;2024-01-25T04:48:22;97204.00;;;5.78;100.00
54038;BME280;39954;48.844;9.726;2024-01-25T04:49:25;97214.31;;;5.78;100.00
54038;BME280;39954;48.844;9.726;2024-01-25T04:50:33;97202.22;;;5.80;100.00
54038;BME280;39954;48.844;9.726;2024-01-25T04:51:36;97214.25;;;5.81;100.00
54038;BME280;39954;48.844;9.726;2024-01-25T04:52:42;97212.56;;;5.80;100.00
54038;BME280;39954;48.844;9.726;2024-01-25T04:53:46;97207.50;;;5.74;100.00
54038;BME280;39954;48.844;9.726;2024-01-25T04:54:55;97215.28;;;5.72;100.00
54038;BME280;39954;48.844;9.726;2024-01-25T04:56:01;97213.47;;;5.77;100.00
54038;BME280;39954;48.844;9.726;2024-01-25T04:57:06;97213.47;;;5.76;100.00
54038;BME280;39954;48.844;9.726;2024-01-25T04:58:10;97226.38;;;5.76;100.00
54038;BME280;39954;48.844;9.726;2024-01-25T04:59:16;97208.31;;;5.76;100.00
54038;BME280;39954;48.844;9.726;2024-01-25T05:01:26;97225.53;;;5.74;100.00
54038;BME280;39954;48.844;9.726;2024-01-25T05:02:29;97222.91;;;5.77;100.00
54038;BME280;39954;48.844;9.726;2024-01-25T05:03:35;97221.28;;;5.73;100.00
54038;BME280;39954;48.844;9.726;2024-01-25T05:04:38;97231.59;;;5.73;100.00
54038;BME280;39954;48.844;9.726;2024-01-25T05:05:47;97222.97;;;5.74;100.00
54038;BME280;39954;48.844;9.726;2024-01-25T05:06:50;97230.75;;;5.72;100.00
54038;BME280;39954;48.844;9.726;2024-01-25T05:07:56;97224.69;;;5.75;100.00
54038;BME280;39954;48.844;9.726;2024-01-25T05:08:59;97227.28;;;5.73;100.00
54038;BME280;39954;48.844;9.726;2024-01-25T05:10:08;97234.09;;;5.77;100.00
54038;BME280;39954;48.844;9.726;2024-01-25T05:11:14;97231.53;;;5.76;100.00
54038;BME280;39954;48.844;9.726;2024-01-25T05:12:19;97230.66;;;5.77;100.00
54038;BME280;39954;48.844;9.726;2024-01-25T05:13:24;97235.91;;;5.72;100.00
54038;BME280;39954;48.844;9.726;2024-01-25T05:14:30;97239.34;;;5.73;100.00
54038;BME280;39954;48.844;9.726;2024-01-25T05:15:33;97235.09;;;5.70;100.00
54038;BME280;39954;48.844;9.726;2024-01-25T05:16:38;97235.06;;;5.72;100.00
54038;BME280;39954;48.844;9.726;2024-01-25T05:17:41;97236.78;;;5.71;100.00
54038;BME280;39954;48.844;9.726;2024-01-25T05:18:44;97236.69;;;5.76;100.00
54038;BME280;39954;48.844;9.726;2024-01-25T05:19:50;97234.94;;;5.78;100.00
54038;BME280;39954;48.844;9.726;2024-01-25T05:20:53;97242.75;;;5.73;100.00
54038;BME280;39954;48.844;9.726;2024-01-25T05:22:00;97245.41;;;5.70;100.00
54038;BME280;39954;48.844;9.726;2024-01-25T05:23:07;97243.59;;;5.74;100.00
54038;BME280;39954;48.844;9.726;2024-01-25T05:24:12;97249.66;;;5.73;100.00
54038;BME280;39954;48.844;9.726;2024-01-25T05:25:18;97246.94;;;5.79;100.00
54038;BME280;39954;48.844;9.726;2024-01-25T05:26:24;97232.31;;;5.81;100.00
54038;BME280;39954;48.844;9.726;2024-01-25T05:27:27;97234.81;;;5.84;100.00
54038;BME280;39954;48.844;9.726;2024-01-25T05:28:32;97229.66;;;5.84;100.00
54038;BME280;39954;48.844;9.726;2024-01-25T05:29:38;97226.31;;;5.79;100.00
54038;BME280;39954;48.844;9.726;2024-01-25T05:30:44;97223.78;;;5.77;100.00
54038;BME280;39954;48.844;9.726;2024-01-25T05:31:46;97222.16;;;5.72;100.00
54038;BME280;39954;48.844;9.726;2024-01-25T05:32:52;97224.91;;;5.63;100.00
54038;BME280;39954;48.844;9.726;2024-01-25T05:33:57;97225.78;;;5.61;100.00
54038;BME280;39954;48.844;9.726;2024-01-25T05:35:03;97225.81;;;5.60;100.00
54038;BME280;39954;48.844;9.726;2024-01-25T05:36:07;97224.00;;;5.65;100.00
54038;BME280;39954;48.844;9.726;2024-01-25T05:37:14;97226.69;;;5.60;100.00
54038;BME280;39954;48.844;9.726;2024-01-25T05:38:17;97222.44;;;5.58;100.00
54038;BME280;39954;48.844;9.726;2024-01-25T05:39:22;97230.13;;;5.59;100.00
54038;BME280;39954;48.844;9.726;2024-01-25T05:40:27;97227.59;;;5.56;100.00
54038;BME280;39954;48.844;9.726;2024-01-25T05:41:33;97231.06;;;5.55;100.00
54038;BME280;39954;48.844;9.726;2024-01-25T05:42:38;97224.94;;;5.61;100.00
54038;BME280;39954;48.844;9.726;2024-01-25T05:43:44;97237.09;;;5.54;100.00
54038;BME280;39954;48.844;9.726;2024-01-25T05:44:47;97246.50;;;5.58;100.00
54038;BME280;39954;48.844;9.726;2024-01-25T05:45:53;97241.44;;;5.52;100.00